Time;durP1;ratioP1;P1;durP2;ratioP2;P2;SDS_P1;SDS_P2;PMS_P1;PMS_P2;Temp;Humidity;BMP_temperature;BMP_pressure;BME280_temperature;BME280_humidity;BME280_pressure;Samples;Min_cycle;Max_cycle;Signal;HPM_P1;HPM_P2
2023/06/17 00:02:10;;;;;;;6.33;4.43;;;;;;;;;;6135994;23;20411;-88
2023/06/17 00:04:37;;;;;;;6.00;4.73;;;;;;;;;;6161580;23;20368;-86
2023/06/17 00:07:02;;;;;;;5.23;4.23;;;;;;;;;;6136976;23;20379;-89
2023/06/17 00:09:28;;;;;;;5.03;4.53;;;;;;;;;;6136202;23;20916;-88
2023/06/17 00:11:58;;;;;;;5.20;4.50;;;;;;;;;;6161715;23;20379;-89
2023/06/17 00:14:24;;;;;;;4.90;4.40;;;;;;;;;;6135991;23;20387;-88
2023/06/17 00:16:50;;;;;;;6.73;5.30;;;;;;;;;;6161816;23;20379;-88
2023/06/17 00:19:16;;;;;;;9.53;4.30;;;;;;;;;;6136962;23;20379;-88
2023/06/17 00:21:43;;;;;;;6.93;4.03;;;;;;;;;;6137253;23;20416;-89
2023/06/17 00:24:12;;;;;;;5.13;4.13;;;;;;;;;;6136878;23;20388;-89
2023/06/17 00:26:38;;;;;;;5.67;4.40;;;;;;;;;;6161817;23;20440;-89
2023/06/17 00:29:05;;;;;;;6.10;4.50;;;;;;;;;;6133967;23;20375;-89
2023/06/17 00:31:31;;;;;;;8.20;4.37;;;;;;;;;;6136849;23;21098;-89
2023/06/17 00:33:57;;;;;;;9.10;4.50;;;;;;;;;;6135486;23;20473;-89
2023/06/17 00:36:23;;;;;;;5.17;4.53;;;;;;;;;;6162634;23;20371;-88
2023/06/17 00:38:50;;;;;;;5.10;4.60;;;;;;;;;;6136142;23;20415;-89
2023/06/17 00:41:16;;;;;;;6.50;5.07;;;;;;;;;;6135963;23;20415;-89
2023/06/17 00:43:42;;;;;;;7.23;4.83;;;;;;;;;;6161972;23;20376;-88
2023/06/17 00:46:09;;;;;;;9.20;4.80;;;;;;;;;;6136696;23;20449;-88
2023/06/17 00:48:35;;;;;;;6.90;4.47;;;;;;;;;;6135944;23;20374;-89
2023/06/17 00:51:04;;;;;;;5.90;4.60;;;;;;;;;;6137239;23;20414;-89
2023/06/17 00:53:30;;;;;;;5.40;4.27;;;;;;;;;;6137009;23;20376;-88
2023/06/17 00:55:58;;;;;;;7.27;4.67;;;;;;;;;;6136635;23;20422;-88
2023/06/17 00:58:24;;;;;;;5.50;4.33;;;;;;;;;;6135510;23;20396;-89
2023/06/17 01:00:50;;;;;;;6.57;4.00;;;;;;;;;;6135708;23;20899;-89
2023/06/17 01:03:17;;;;;;;6.33;4.50;;;;;;;;;;6135992;23;20463;-88
2023/06/17 01:05:43;;;;;;;8.10;5.07;;;;;;;;;;6135405;23;20376;-88
2023/06/17 01:08:10;;;;;;;6.53;4.33;;;;;;;;;;6136331;23;20380;-88
2023/06/17 01:10:36;;;;;;;5.70;4.67;;;;;;;;;;6188442;23;20395;-89
2023/06/17 01:13:03;;;;;;;5.07;4.40;;;;;;;;;;6159661;23;20372;-90
2023/06/17 01:15:29;;;;;;;6.73;3.80;;;;;;;;;;6137031;23;20395;-89
2023/06/17 01:17:55;;;;;;;4.77;4.10;;;;;;;;;;6161171;23;20404;-89
2023/06/17 01:20:22;;;;;;;5.43;4.80;;;;;;;;;;6136319;23;20908;-88
2023/06/17 01:22:48;;;;;;;6.63;4.80;;;;;;;;;;6136608;23;20769;-89
2023/06/17 01:25:14;;;;;;;6.17;4.10;;;;;;;;;;6162266;23;20372;-88
2023/06/17 01:27:41;;;;;;;6.30;4.50;;;;;;;;;;6160558;23;20431;-88
2023/06/17 01:30:08;;;;;;;5.20;4.50;;;;;;;;;;6096504;23;20862;-88
2023/06/17 01:32:34;;;;;;;5.27;4.43;;;;;;;;;;6072205;23;20469;-88
2023/06/17 01:35:00;;;;;;;6.20;4.37;;;;;;;;;;6071505;23;20389;-89
2023/06/17 01:37:48;;;;;;;6.03;4.23;;;;;;;;;;6071620;23;20512;-88
2023/06/17 01:40:14;;;;;;;4.87;4.20;;;;;;;;;;6071241;23;20501;-89
2023/06/17 01:42:42;;;;;;;4.43;4.00;;;;;;;;;;6071157;23;20379;-88
2023/06/17 01:45:08;;;;;;;6.00;3.90;;;;;;;;;;6094915;23;20375;-87
2023/06/17 01:47:34;;;;;;;4.73;3.90;;;;;;;;;;6070127;23;20389;-88
2023/06/17 01:50:00;;;;;;;6.53;4.37;;;;;;;;;;6071566;23;20926;-88
2023/06/17 01:52:27;;;;;;;6.10;4.30;;;;;;;;;;6069867;23;20906;-88
2023/06/17 01:54:52;;;;;;;7.27;4.80;;;;;;;;;;6071175;23;20382;-88
2023/06/17 01:57:19;;;;;;;5.90;4.00;;;;;;;;;;6069802;23;20469;-89
2023/06/17 01:59:44;;;;;;;5.37;4.87;;;;;;;;;;6095083;23;20398;-88
2023/06/17 02:02:10;;;;;;;6.20;3.50;;;;;;;;;;6131922;23;20695;-88
2023/06/17 02:04:36;;;;;;;9.23;4.43;;;;;;;;;;6135286;23;20376;-88
2023/06/17 02:07:03;;;;;;;6.20;4.03;;;;;;;;;;6136005;23;20383;-88
2023/06/17 02:09:29;;;;;;;6.43;4.80;;;;;;;;;;6135783;23;20380;-90
2023/06/17 02:11:55;;;;;;;4.80;4.07;;;;;;;;;;6135160;23;20430;-89
2023/06/17 02:14:21;;;;;;;5.60;4.83;;;;;;;;;;6160052;23;20384;-88
2023/06/17 02:16:47;;;;;;;8.03;4.87;;;;;;;;;;6135094;23;21087;-89
2023/06/17 02:19:14;;;;;;;7.20;4.80;;;;;;;;;;6160283;23;20364;-89
2023/06/17 02:21:40;;;;;;;5.13;4.27;;;;;;;;;;6136506;23;20419;-89
2023/06/17 02:24:06;;;;;;;6.13;5.00;;;;;;;;;;6159559;23;20420;-87
2023/06/17 02:26:32;;;;;;;6.30;4.80;;;;;;;;;;6134566;23;20684;-88
2023/06/17 02:28:58;;;;;;;5.60;4.40;;;;;;;;;;6160208;23;20372;-87
2023/06/17 02:31:27;;;;;;;4.67;4.07;;;;;;;;;;6135115;23;20376;-89
2023/06/17 02:33:53;;;;;;;5.27;4.37;;;;;;;;;;6135374;23;20926;-89
2023/06/17 02:36:19;;;;;;;6.37;4.73;;;;;;;;;;6134711;23;20442;-89
2023/06/17 02:38:45;;;;;;;4.90;4.23;;;;;;;;;;6160337;23;20368;-89
2023/06/17 02:41:11;;;;;;;5.73;4.50;;;;;;;;;;6134611;23;20458;-89
2023/06/17 02:43:37;;;;;;;7.47;5.17;;;;;;;;;;6135916;23;20377;-88
2023/06/17 02:46:03;;;;;;;5.10;4.00;;;;;;;;;;6136007;23;21026;-88
2023/06/17 02:48:29;;;;;;;5.40;4.73;;;;;;;;;;6135246;23;20380;-88
2023/06/17 02:50:55;;;;;;;6.93;4.97;;;;;;;;;;6136455;23;20438;-88
2023/06/17 02:53:22;;;;;;;5.43;4.37;;;;;;;;;;6134542;23;20372;-88
2023/06/17 02:55:48;;;;;;;6.10;4.33;;;;;;;;;;6135325;23;20938;-89
2023/06/17 02:58:15;;;;;;;6.33;5.20;;;;;;;;;;6135146;23;20396;-90
2023/06/17 03:00:45;;;;;;;6.90;5.13;;;;;;;;;;6135436;23;20911;-88
2023/06/17 03:03:10;;;;;;;6.93;5.43;;;;;;;;;;6135306;23;20387;-88
2023/06/17 03:05:41;;;;;;;5.93;4.50;;;;;;;;;;6159860;23;20368;-88
2023/06/17 03:08:07;;;;;;;7.80;5.73;;;;;;;;;;6161089;23;20363;-89
2023/06/17 03:10:36;;;;;;;4.87;4.30;;;;;;;;;;6135232;23;20371;-88
2023/06/17 03:13:02;;;;;;;5.53;4.63;;;;;;;;;;6136241;23;20419;-88
2023/06/17 03:15:28;;;;;;;6.03;4.93;;;;;;;;;;6136536;23;20697;-89
2023/06/17 03:17:54;;;;;;;6.70;4.80;;;;;;;;;;6135808;23;20419;-88
2023/06/17 03:20:28;;;;;;;5.80;5.00;;;;;;;;;;6164210;23;20442;-88
2023/06/17 03:22:55;;;;;;;7.37;5.13;;;;;;;;;;6161098;23;20376;-88
2023/06/17 03:25:21;;;;;;;7.30;4.63;;;;;;;;;;6136727;23;20906;-88
2023/06/17 03:27:47;;;;;;;6.33;4.63;;;;;;;;;;6136460;23;20379;-89
2023/06/17 03:30:13;;;;;;;7.93;5.07;;;;;;;;;;6136358;23;20376;-89
2023/06/17 03:32:39;;;;;;;7.33;5.27;;;;;;;;;;6135107;23;20391;-89
2023/06/17 03:35:06;;;;;;;6.83;5.07;;;;;;;;;;6136014;23;20383;-88
2023/06/17 03:37:32;;;;;;;7.40;4.57;;;;;;;;;;6136675;23;20384;-88
2023/06/17 03:39:57;;;;;;;6.27;4.73;;;;;;;;;;6137505;23;20412;-88
2023/06/17 03:42:23;;;;;;;7.57;5.47;;;;;;;;;;6134967;23;20379;-89
2023/06/17 03:44:50;;;;;;;8.00;5.57;;;;;;;;;;6134927;23;20393;-89
2023/06/17 03:47:17;;;;;;;5.67;5.13;;;;;;;;;;6136713;23;20400;-88
2023/06/17 03:49:44;;;;;;;6.50;4.57;;;;;;;;;;6159420;23;20368;-89
2023/06/17 03:52:10;;;;;;;6.47;5.07;;;;;;;;;;6134670;23;20360;-89
2023/06/17 03:54:36;;;;;;;5.77;4.70;;;;;;;;;;6137765;23;20383;-89
2023/06/17 03:57:02;;;;;;;5.90;4.83;;;;;;;;;;6158525;23;20376;-89
2023/06/17 03:59:28;;;;;;;5.23;4.70;;;;;;;;;;6158853;23;20446;-89
2023/06/17 04:01:54;;;;;;;6.30;5.37;;;;;;;;;;6159117;23;20896;-89
2023/06/17 04:04:20;;;;;;;7.70;5.13;;;;;;;;;;6157581;23;20840;-89
2023/06/17 04:06:46;;;;;;;7.50;5.00;;;;;;;;;;6158671;23;20388;-89
2023/06/17 04:09:12;;;;;;;5.53;4.90;;;;;;;;;;6158555;23;20376;-88
2023/06/17 04:11:39;;;;;;;5.70;5.10;;;;;;;;;;6159245;23;20384;-89
2023/06/17 04:14:05;;;;;;;5.67;4.93;;;;;;;;;;6160742;23;20443;-88
2023/06/17 04:16:35;;;;;;;7.60;5.20;;;;;;;;;;6159823;23;20918;-89
2023/06/17 04:19:01;;;;;;;8.20;5.20;;;;;;;;;;6159301;23;20375;-88
2023/06/17 04:21:28;;;;;;;6.17;5.57;;;;;;;;;;6159647;23;20576;-89
2023/06/17 04:23:54;;;;;;;5.83;4.40;;;;;;;;;;6158994;23;20447;-89
2023/06/17 04:26:20;;;;;;;6.47;5.33;;;;;;;;;;6162679;23;20376;-89
2023/06/17 04:28:47;;;;;;;7.20;5.27;;;;;;;;;;6140698;23;20376;-88
2023/06/17 04:31:15;;;;;;;9.37;5.50;;;;;;;;;;6162403;23;20395;-89
2023/06/17 04:33:41;;;;;;;5.10;4.60;;;;;;;;;;6134477;23;20384;-89
2023/06/17 04:36:10;;;;;;;5.50;4.63;;;;;;;;;;6133666;23;20391;-89
2023/06/17 04:38:37;;;;;;;6.97;4.80;;;;;;;;;;6133397;23;20390;-88
2023/06/17 04:41:05;;;;;;;6.47;5.20;;;;;;;;;;6134863;23;20431;-89
2023/06/17 04:43:32;;;;;;;8.10;5.57;;;;;;;;;;6160018;23;20863;-87
2023/06/17 04:45:58;;;;;;;5.53;4.97;;;;;;;;;;6138262;23;20408;-89
2023/06/17 04:48:24;;;;;;;5.87;5.27;;;;;;;;;;6137014;23;20380;-89
2023/06/17 04:50:52;;;;;;;6.80;5.50;;;;;;;;;;6138515;23;20418;-88
2023/06/17 04:53:18;;;;;;;5.30;4.60;;;;;;;;;;6136103;23;20426;-90
2023/06/17 04:55:44;;;;;;;6.93;4.77;;;;;;;;;;6136823;23;20422;-87
2023/06/17 04:58:10;;;;;;;9.77;6.10;;;;;;;;;;6161176;23;20499;-89
2023/06/17 05:00:36;;;;;;;5.93;5.33;;;;;;;;;;6140077;23;20426;-89
2023/06/17 05:03:02;;;;;;;8.30;5.97;;;;;;;;;;6136747;23;20422;-87
2023/06/17 05:05:28;;;;;;;7.63;5.67;;;;;;;;;;6136597;23;20380;-89
2023/06/17 05:07:54;;;;;;;11.17;5.80;;;;;;;;;;6136728;23;20376;-87
2023/06/17 05:10:20;;;;;;;7.20;6.27;;;;;;;;;;6161589;23;20371;-88
2023/06/17 05:12:46;;;;;;;6.10;5.37;;;;;;;;;;6159318;23;20402;-87
2023/06/17 05:15:12;;;;;;;6.03;5.43;;;;;;;;;;6135393;23;20379;-88
2023/06/17 05:17:38;;;;;;;8.10;6.37;;;;;;;;;;6135205;23;20380;-89
2023/06/17 05:20:06;;;;;;;8.50;6.23;;;;;;;;;;6135938;23;20729;-88
2023/06/17 05:22:32;;;;;;;6.83;5.10;;;;;;;;;;6136684;23;20403;-88
2023/06/17 05:24:58;;;;;;;6.50;5.90;;;;;;;;;;6133826;23;20427;-87
2023/06/17 05:27:24;;;;;;;6.67;5.70;;;;;;;;;;6134517;23;20380;-88
2023/06/17 05:29:50;;;;;;;6.60;5.40;;;;;;;;;;6159189;23;20403;-89
2023/06/17 05:32:16;;;;;;;7.10;5.40;;;;;;;;;;6134954;23;20522;-88
2023/06/17 05:34:42;;;;;;;12.00;6.60;;;;;;;;;;6135139;23;20514;-88
2023/06/17 05:37:08;;;;;;;6.43;4.93;;;;;;;;;;6162158;23;20873;-89
2023/06/17 05:39:34;;;;;;;6.53;5.77;;;;;;;;;;6135326;23;20414;-88
2023/06/17 05:42:00;;;;;;;10.70;6.23;;;;;;;;;;6136183;23;20440;-87
2023/06/17 05:44:26;;;;;;;8.50;7.00;;;;;;;;;;6135195;23;20717;-86
2023/06/17 05:46:52;;;;;;;6.60;5.17;;;;;;;;;;6162014;23;20368;-87
2023/06/17 05:49:18;;;;;;;8.00;5.93;;;;;;;;;;6138115;23;20859;-87
2023/06/17 05:51:44;;;;;;;6.70;6.00;;;;;;;;;;6137330;23;20418;-87
2023/06/17 05:54:10;;;;;;;8.87;7.17;;;;;;;;;;6135278;23;20455;-87
2023/06/17 05:56:36;;;;;;;7.00;5.90;;;;;;;;;;6135209;23;20434;-87
2023/06/17 05:59:02;;;;;;;6.90;6.20;;;;;;;;;;6136856;23;20400;-87
2023/06/17 06:01:28;;;;;;;6.80;5.57;;;;;;;;;;6160858;23;20426;-88
2023/06/17 06:03:54;;;;;;;6.93;6.00;;;;;;;;;;6135717;23;20462;-87
2023/06/17 06:06:21;;;;;;;7.03;6.20;;;;;;;;;;6162596;23;20388;-87
2023/06/17 06:08:47;;;;;;;9.13;6.00;;;;;;;;;;6135687;23;20384;-87
2023/06/17 06:11:13;;;;;;;6.37;5.00;;;;;;;;;;6135626;23;20376;-87
2023/06/17 06:13:39;;;;;;;7.00;6.00;;;;;;;;;;6135257;23;20415;-87
2023/06/17 06:16:05;;;;;;;7.47;5.77;;;;;;;;;;6136437;23;20770;-87
2023/06/17 06:18:31;;;;;;;8.80;6.00;;;;;;;;;;6138353;23;20936;-87
2023/06/17 06:20:57;;;;;;;6.37;5.57;;;;;;;;;;6166450;23;20498;-86
2023/06/17 06:23:24;;;;;;;6.63;5.93;;;;;;;;;;6139024;23;20372;-87
2023/06/17 06:25:50;;;;;;;7.43;6.00;;;;;;;;;;6162689;23;20372;-86
2023/06/17 06:28:17;;;;;;;6.90;6.07;;;;;;;;;;6164167;23;20863;-87
2023/06/17 06:30:44;;;;;;;6.10;5.50;;;;;;;;;;6141847;23;20380;-86
2023/06/17 06:33:11;;;;;;;6.00;5.50;;;;;;;;;;6134581;23;20384;-88
2023/06/17 06:35:38;;;;;;;10.17;6.07;;;;;;;;;;6136248;23;20387;-88
2023/06/17 06:38:04;;;;;;;6.40;5.80;;;;;;;;;;6138395;23;20426;-87
2023/06/17 06:40:31;;;;;;;6.77;6.10;;;;;;;;;;6166262;23;20412;-87
2023/06/17 06:42:57;;;;;;;6.77;6.17;;;;;;;;;;6162331;23;20372;-88
2023/06/17 06:45:23;;;;;;;6.93;6.03;;;;;;;;;;6142062;23;20917;-88
2023/06/17 06:47:49;;;;;;;10.70;6.80;;;;;;;;;;6138158;23;20392;-88
2023/06/17 06:50:15;;;;;;;9.97;6.90;;;;;;;;;;6138336;23;20380;-88
2023/06/17 06:52:41;;;;;;;7.57;6.33;;;;;;;;;;6136006;23;20867;-87
2023/06/17 06:55:07;;;;;;;9.27;7.10;;;;;;;;;;6136136;23;20380;-88
2023/06/17 06:57:33;;;;;;;7.83;6.50;;;;;;;;;;6141714;23;20464;-87
2023/06/17 06:59:59;;;;;;;8.07;7.17;;;;;;;;;;6135820;23;20404;-88
2023/06/17 07:02:25;;;;;;;7.53;6.20;;;;;;;;;;6134051;23;20467;-87
2023/06/17 07:04:52;;;;;;;7.87;7.10;;;;;;;;;;6136151;23;20380;-87
2023/06/17 07:07:18;;;;;;;17.00;8.03;;;;;;;;;;6135471;23;20372;-87
2023/06/17 07:09:44;;;;;;;7.40;6.33;;;;;;;;;;6160605;23;20410;-87
2023/06/17 07:12:11;;;;;;;7.00;6.33;;;;;;;;;;6136721;23;20771;-88
2023/06/17 07:14:37;;;;;;;7.30;6.60;;;;;;;;;;6135359;23;20388;-87
2023/06/17 07:17:03;;;;;;;7.93;6.37;;;;;;;;;;6135609;23;20391;-88
2023/06/17 07:19:29;;;;;;;8.87;6.73;;;;;;;;;;6134694;23;20391;-87
2023/06/17 07:21:55;;;;;;;7.57;6.43;;;;;;;;;;6135152;23;20411;-87
2023/06/17 07:24:21;;;;;;;8.40;6.77;;;;;;;;;;6134720;23;20826;-88
2023/06/17 07:26:47;;;;;;;7.90;7.03;;;;;;;;;;6135625;23;20372;-88
2023/06/17 07:29:13;;;;;;;7.90;7.00;;;;;;;;;;6136139;23;20634;-89
2023/06/17 07:31:39;;;;;;;8.97;6.50;;;;;;;;;;6135363;23;20391;-87
2023/06/17 07:34:05;;;;;;;8.60;6.93;;;;;;;;;;6129785;23;20379;-88
2023/06/17 07:36:31;;;;;;;7.10;6.40;;;;;;;;;;6133580;23;20384;-88
2023/06/17 07:38:57;;;;;;;8.50;6.20;;;;;;;;;;6132217;23;20419;-87
2023/06/17 07:41:24;;;;;;;11.67;6.33;;;;;;;;;;6136371;23;20412;-87
2023/06/17 07:43:50;;;;;;;7.00;6.30;;;;;;;;;;6134126;23;20487;-88
2023/06/17 07:46:16;;;;;;;5.70;5.20;;;;;;;;;;6134036;23;20407;-87
2023/06/17 07:48:52;;;;;;;12.90;6.17;;;;;;;;;;6136704;23;20388;-91
2023/06/17 07:51:18;;;;;;;11.13;6.10;;;;;;;;;;6162445;23;20403;-92
2023/06/17 07:53:44;;;;;;;5.40;4.90;;;;;;;;;;6136371;23;20484;-89
2023/06/17 07:56:10;;;;;;;8.53;7.10;;;;;;;;;;6137008;23;20403;-90
2023/06/17 07:58:36;;;;;;;10.90;7.70;;;;;;;;;;6136014;23;20436;-89
2023/06/17 08:01:02;;;;;;;9.40;8.10;;;;;;;;;;6134365;23;20430;-88
2023/06/17 08:03:29;;;;;;;10.97;7.07;;;;;;;;;;6134116;23;21031;-88
2023/06/17 08:05:55;;;;;;;10.60;7.40;;;;;;;;;;6138014;23;20391;-92
2023/06/17 08:08:21;;;;;;;8.93;7.87;;;;;;;;;;6138167;23;20446;-90
2023/06/17 08:10:48;;;;;;;9.80;7.67;;;;;;;;;;6133797;23;20391;-90
2023/06/17 08:13:18;;;;;;;9.67;7.07;;;;;;;;;;6140331;23;20466;-95
2023/06/17 08:15:44;;;;;;;9.27;8.20;;;;;;;;;;6114227;23;20415;-88
2023/06/17 08:18:10;;;;;;;8.80;6.80;;;;;;;;;;6135000;23;20387;-89
2023/06/17 08:20:37;;;;;;;8.80;7.17;;;;;;;;;;6160006;23;20434;-89
2023/06/17 08:23:03;;;;;;;8.00;6.63;;;;;;;;;;6135746;23;20459;-88
2023/06/17 08:25:29;;;;;;;9.73;7.20;;;;;;;;;;6159345;23;20487;-88
2023/06/17 08:27:55;;;;;;;7.30;6.60;;;;;;;;;;6160008;23;20352;-88
2023/06/17 08:30:21;;;;;;;8.37;7.57;;;;;;;;;;6164792;23;20360;-90
2023/06/17 08:32:47;;;;;;;9.73;7.43;;;;;;;;;;6140897;23;20396;-92
2023/06/17 08:35:14;;;;;;;8.30;7.23;;;;;;;;;;6142842;23;20368;-92
2023/06/17 08:37:40;;;;;;;8.63;6.83;;;;;;;;;;6164469;23;20366;-92
2023/06/17 08:40:08;;;;;;;7.40;6.70;;;;;;;;;;6140717;23;20412;-93
2023/06/17 08:42:34;;;;;;;10.03;7.93;;;;;;;;;;6139963;23;20376;-93
2023/06/17 08:45:00;;;;;;;7.80;7.00;;;;;;;;;;6140973;23;21127;-91
2023/06/17 08:47:26;;;;;;;8.20;6.90;;;;;;;;;;6137357;23;20730;-91
2023/06/17 08:49:53;;;;;;;7.97;7.17;;;;;;;;;;6138790;23;20411;-92
2023/06/17 08:52:19;;;;;;;8.07;7.27;;;;;;;;;;6137409;23;21035;-92
2023/06/17 08:54:45;;;;;;;7.03;6.33;;;;;;;;;;6138051;23;20394;-92
2023/06/17 08:57:12;;;;;;;9.83;7.83;;;;;;;;;;6137562;23;20384;-91
2023/06/17 08:59:42;;;;;;;8.00;7.20;;;;;;;;;;6136458;23;20404;-89
2023/06/17 09:02:10;;;;;;;7.70;6.43;;;;;;;;;;6161111;23;20411;-90
2023/06/17 09:05:12;;;;;;;6.60;5.80;;;;;;;;;;6139353;23;21091;-96
2023/06/17 09:07:41;;;;;;;9.03;7.10;;;;;;;;;;6023530;23;20711;-95
2023/06/17 09:10:09;;;;;;;6.60;5.60;;;;;;;;;;6152357;23;20384;-93
2023/06/17 09:12:36;;;;;;;10.00;6.10;;;;;;;;;;6144642;23;20388;-88
2023/06/17 09:15:03;;;;;;;6.30;5.53;;;;;;;;;;6138450;23;20408;-86
2023/06/17 09:17:32;;;;;;;5.50;5.00;;;;;;;;;;6136240;23;20380;-87
2023/06/17 09:20:08;;;;;;;6.60;6.00;;;;;;;;;;6139045;23;20376;-86
2023/06/17 09:22:35;;;;;;;6.10;5.50;;;;;;;;;;6159594;23;20355;-87
2023/06/17 09:25:01;;;;;;;6.20;5.10;;;;;;;;;;6159101;23;20369;-88
2023/06/17 09:27:27;;;;;;;6.00;5.13;;;;;;;;;;6159455;23;21155;-88
2023/06/17 09:30:06;;;;;;;5.90;4.50;;;;;;;;;;6135411;23;20459;-88
2023/06/17 09:32:42;;;;;;;7.23;6.27;;;;;;;;;;6136110;23;20869;-87
2023/06/17 09:35:14;;;;;;;6.90;5.63;;;;;;;;;;6160528;23;20452;-87
2023/06/17 09:37:40;;;;;;;5.30;4.80;;;;;;;;;;6160984;23;20423;-87
2023/06/17 09:40:06;;;;;;;7.73;5.10;;;;;;;;;;6135309;23;20380;-86
2023/06/17 09:42:32;;;;;;;5.90;4.30;;;;;;;;;;6135502;23;20380;-86
2023/06/17 09:45:03;;;;;;;7.37;5.67;;;;;;;;;;6164094;23;20369;-89
2023/06/17 09:47:38;;;;;;;5.70;5.10;;;;;;;;;;6137206;23;20368;-88
2023/06/17 09:50:06;;;;;;;6.30;5.10;;;;;;;;;;6137351;23;20372;-87
2023/06/17 09:52:32;;;;;;;5.77;5.17;;;;;;;;;;6137271;23;20847;-88
2023/06/17 09:54:59;;;;;;;6.10;5.33;;;;;;;;;;6139040;23;21141;-88
2023/06/17 09:57:26;;;;;;;6.07;5.47;;;;;;;;;;6137583;23;20463;-87
2023/06/17 09:59:54;;;;;;;5.70;5.20;;;;;;;;;;6134676;23;20741;-88
2023/06/17 10:02:20;;;;;;;5.60;5.00;;;;;;;;;;6167212;23;20373;-87
2023/06/17 10:04:46;;;;;;;5.80;4.80;;;;;;;;;;6140274;23;20423;-90
2023/06/17 10:07:13;;;;;;;7.60;5.40;;;;;;;;;;6138147;23;20379;-89
2023/06/17 10:09:39;;;;;;;7.20;5.00;;;;;;;;;;6138244;23;20380;-90
2023/06/17 10:12:05;;;;;;;7.50;5.37;;;;;;;;;;6137093;23;20372;-88
2023/06/17 10:14:32;;;;;;;7.23;6.53;;;;;;;;;;6137373;23;20383;-87
2023/06/17 10:16:58;;;;;;;6.27;5.60;;;;;;;;;;6136727;23;20376;-85
2023/06/17 10:19:25;;;;;;;6.60;5.53;;;;;;;;;;6137858;23;20383;-85
2023/06/17 10:21:51;;;;;;;7.90;5.83;;;;;;;;;;6158841;23;20411;-86
2023/06/17 10:24:17;;;;;;;5.63;5.10;;;;;;;;;;6161933;23;20438;-86
2023/06/17 10:26:43;;;;;;;6.87;5.70;;;;;;;;;;6161813;23;20364;-89
2023/06/17 10:29:11;;;;;;;6.20;5.60;;;;;;;;;;6140736;23;20384;-87
2023/06/17 10:31:42;;;;;;;7.63;5.30;;;;;;;;;;6138988;23;20765;-87
2023/06/17 10:34:14;;;;;;;6.17;4.83;;;;;;;;;;6163325;23;20376;-86
2023/06/17 10:36:40;;;;;;;7.27;5.60;;;;;;;;;;6136179;23;20523;-87
2023/06/17 10:39:06;;;;;;;9.13;5.47;;;;;;;;;;6136617;23;20391;-87
2023/06/17 10:41:38;;;;;;;6.90;5.50;;;;;;;;;;6136517;23;20911;-87
2023/06/17 10:44:23;;;;;;;6.00;5.40;;;;;;;;;;6187968;23;20364;-86
2023/06/17 10:46:50;;;;;;;5.53;5.00;;;;;;;;;;6160392;23;20459;-87
2023/06/17 10:49:16;;;;;;;6.90;5.47;;;;;;;;;;6138893;23;20387;-86
2023/06/17 10:51:46;;;;;;;10.33;5.97;;;;;;;;;;6136926;23;20403;-87
2023/06/17 10:54:12;;;;;;;6.90;5.80;;;;;;;;;;6135034;23;20400;-87
2023/06/17 10:56:47;;;;;;;6.33;5.70;;;;;;;;;;6136086;23;20407;-86
2023/06/17 10:59:13;;;;;;;5.77;5.17;;;;;;;;;;6139480;23;20388;-87
2023/06/17 11:01:41;;;;;;;8.63;5.50;;;;;;;;;;6137026;23;20430;-87
2023/06/17 11:04:12;;;;;;;6.93;6.23;;;;;;;;;;6161238;23;20440;-86
2023/06/17 11:06:38;;;;;;;5.70;4.77;;;;;;;;;;6136717;23;20360;-88
2023/06/17 11:09:04;;;;;;;6.63;4.90;;;;;;;;;;6137298;23;20372;-88
2023/06/17 11:11:30;;;;;;;5.83;5.23;;;;;;;;;;6138446;23;20384;-88
2023/06/17 11:13:56;;;;;;;5.90;5.30;;;;;;;;;;6136868;23;20406;-88
2023/06/17 11:16:22;;;;;;;6.63;6.03;;;;;;;;;;6137737;23;20408;-88
2023/06/17 11:18:48;;;;;;;6.57;5.90;;;;;;;;;;6139175;23;20376;-88
2023/06/17 11:21:15;;;;;;;6.83;4.90;;;;;;;;;;6138246;23;20523;-87
2023/06/17 11:23:42;;;;;;;5.67;4.80;;;;;;;;;;6163630;23;20367;-88
2023/06/17 11:26:09;;;;;;;6.40;5.50;;;;;;;;;;6139014;23;20376;-88
2023/06/17 11:28:39;;;;;;;5.30;4.80;;;;;;;;;;6138300;23;20757;-89
2023/06/17 11:31:05;;;;;;;6.73;4.50;;;;;;;;;;6137932;23;20411;-87
2023/06/17 11:33:32;;;;;;;6.03;5.43;;;;;;;;;;6136168;23;20385;-87
2023/06/17 11:35:58;;;;;;;6.10;5.00;;;;;;;;;;6137142;23;20387;-88
2023/06/17 11:38:25;;;;;;;4.87;4.37;;;;;;;;;;6136402;23;20450;-88
2023/06/17 11:40:57;;;;;;;7.73;6.00;;;;;;;;;;6136703;23;20427;-88
2023/06/17 11:43:26;;;;;;;5.63;5.10;;;;;;;;;;6162672;23;20368;-89
2023/06/17 11:45:56;;;;;;;6.27;4.83;;;;;;;;;;6162001;23;20742;-88
2023/06/17 11:48:27;;;;;;;7.00;4.90;;;;;;;;;;6137910;23;20892;-89
2023/06/17 11:50:54;;;;;;;5.47;4.97;;;;;;;;;;6138915;23;20419;-89
2023/06/17 11:53:28;;;;;;;5.87;5.20;;;;;;;;;;6141046;23;20878;-89
2023/06/17 11:55:54;;;;;;;7.87;4.80;;;;;;;;;;6140383;23;20401;-88
2023/06/17 11:58:20;;;;;;;6.73;5.70;;;;;;;;;;6138709;23;20585;-89
2023/06/17 12:00:46;;;;;;;5.40;4.60;;;;;;;;;;6138651;23;20420;-88
2023/06/17 12:03:13;;;;;;;4.87;4.47;;;;;;;;;;6140569;23;20382;-89
2023/06/17 12:05:39;;;;;;;5.00;4.57;;;;;;;;;;6138887;23;20384;-89
2023/06/17 12:08:05;;;;;;;6.17;4.80;;;;;;;;;;6140025;23;20727;-90
2023/06/17 12:10:37;;;;;;;6.50;5.03;;;;;;;;;;6140179;23;20367;-90
2023/06/17 12:13:04;;;;;;;6.03;4.87;;;;;;;;;;6140463;23;20387;-91
2023/06/17 12:15:32;;;;;;;6.27;5.13;;;;;;;;;;6075935;23;20391;-89
2023/06/17 12:18:09;;;;;;;5.60;5.03;;;;;;;;;;6075181;23;20817;-90
2023/06/17 12:20:36;;;;;;;5.27;4.77;;;;;;;;;;6075680;23;20565;-90
2023/06/17 12:23:02;;;;;;;5.87;4.80;;;;;;;;;;6040665;23;20443;-88
2023/06/17 12:25:33;;;;;;;8.10;5.50;;;;;;;;;;6018592;23;20435;-88
2023/06/17 12:27:59;;;;;;;5.80;5.10;;;;;;;;;;6017412;23;20393;-89
2023/06/17 12:30:24;;;;;;;6.20;5.27;;;;;;;;;;6018440;23;20384;-90
2023/06/17 12:32:54;;;;;;;5.97;5.47;;;;;;;;;;6017033;23;20407;-89
2023/06/17 12:35:22;;;;;;;5.97;4.60;;;;;;;;;;6019796;23;20393;-89
2023/06/17 12:37:48;;;;;;;5.30;4.80;;;;;;;;;;6017923;23;20393;-90
2023/06/17 12:40:14;;;;;;;5.10;4.60;;;;;;;;;;6016426;23;20420;-89
2023/06/17 12:42:40;;;;;;;5.43;4.93;;;;;;;;;;6016174;23;20391;-90
2023/06/17 12:45:06;;;;;;;7.63;5.07;;;;;;;;;;6016524;23;20395;-89
2023/06/17 12:47:32;;;;;;;6.33;4.80;;;;;;;;;;6076719;23;20382;-91
2023/06/17 12:49:58;;;;;;;5.50;4.87;;;;;;;;;;6105140;23;20410;-89
2023/06/17 12:52:25;;;;;;;4.83;4.27;;;;;;;;;;6104564;23;20377;-88
2023/06/17 12:55:01;;;;;;;4.43;3.60;;;;;;;;;;6132138;23;20380;-86
2023/06/17 12:57:27;;;;;;;5.60;4.57;;;;;;;;;;6162631;23;20368;-87
2023/06/17 12:59:53;;;;;;;5.50;5.00;;;;;;;;;;6140114;23;20473;-87
2023/06/17 13:02:19;;;;;;;5.20;4.70;;;;;;;;;;6137559;23;20435;-86
2023/06/17 13:04:45;;;;;;;7.20;5.17;;;;;;;;;;6163511;23;20368;-87
2023/06/17 13:07:11;;;;;;;5.70;5.10;;;;;;;;;;6138358;23;20379;-86
2023/06/17 13:09:37;;;;;;;4.47;4.07;;;;;;;;;;6139583;23;20372;-86
2023/06/17 13:12:04;;;;;;;6.13;4.40;;;;;;;;;;6137393;23;20380;-87
2023/06/17 13:14:30;;;;;;;4.90;4.27;;;;;;;;;;6139734;23;20383;-88
2023/06/17 13:16:56;;;;;;;10.03;5.00;;;;;;;;;;6138616;23;21030;-86
2023/06/17 13:19:23;;;;;;;8.00;4.93;;;;;;;;;;6137848;23;20372;-88
2023/06/17 13:21:52;;;;;;;5.33;4.80;;;;;;;;;;6137754;23;20458;-87
2023/06/17 13:24:18;;;;;;;5.23;4.73;;;;;;;;;;6136909;23;20372;-86
2023/06/17 13:26:44;;;;;;;4.87;4.47;;;;;;;;;;6135123;23;20391;-87
2023/06/17 13:29:10;;;;;;;5.07;4.43;;;;;;;;;;6137659;23;20380;-86
2023/06/17 13:31:36;;;;;;;8.00;4.27;;;;;;;;;;6138126;23;20950;-85
2023/06/17 13:34:02;;;;;;;7.67;4.80;;;;;;;;;;6141055;23;20412;-90
2023/06/17 13:36:28;;;;;;;5.77;5.17;;;;;;;;;;6136475;23;20384;-87
2023/06/17 13:38:55;;;;;;;5.70;5.20;;;;;;;;;;6139759;23;20463;-87
2023/06/17 13:41:21;;;;;;;6.27;5.03;;;;;;;;;;6141316;23;20430;-89
2023/06/17 13:43:47;;;;;;;9.73;4.67;;;;;;;;;;6138036;23;20399;-90
2023/06/17 13:46:13;;;;;;;7.73;5.37;;;;;;;;;;6163110;23;20380;-86
2023/06/17 13:48:40;;;;;;;5.93;5.33;;;;;;;;;;6161193;23;20384;-90
2023/06/17 13:51:06;;;;;;;8.70;5.10;;;;;;;;;;6101488;23;20434;-86
2023/06/17 13:53:32;;;;;;;5.13;4.63;;;;;;;;;;6077270;23;20405;-87
2023/06/17 13:55:58;;;;;;;6.30;5.47;;;;;;;;;;6102247;23;20432;-88
2023/06/17 13:58:24;;;;;;;5.47;4.97;;;;;;;;;;6077741;23;20389;-87
2023/06/17 14:00:54;;;;;;;6.00;4.90;;;;;;;;;;6078061;23;20453;-87
2023/06/17 14:03:20;;;;;;;7.03;5.17;;;;;;;;;;6080098;23;20386;-86
2023/06/17 14:05:46;;;;;;;6.30;5.20;;;;;;;;;;6079508;23;20374;-87
2023/06/17 14:08:12;;;;;;;5.70;4.90;;;;;;;;;;6077682;23;20382;-91
2023/06/17 14:10:38;;;;;;;6.37;5.40;;;;;;;;;;6079486;23;20393;-87
2023/06/17 14:13:04;;;;;;;5.67;5.07;;;;;;;;;;6076882;23;20731;-89
2023/06/17 14:15:30;;;;;;;9.83;5.20;;;;;;;;;;6079018;23;20401;-87
2023/06/17 14:17:56;;;;;;;5.93;5.30;;;;;;;;;;6077724;23;20732;-87
2023/06/17 14:20:22;;;;;;;6.50;5.90;;;;;;;;;;6078690;23;20421;-87
2023/06/17 14:22:49;;;;;;;6.57;4.50;;;;;;;;;;6124916;23;20443;-87
2023/06/17 14:25:15;;;;;;;5.77;5.27;;;;;;;;;;6136183;23;20388;-87
2023/06/17 14:27:41;;;;;;;6.10;4.63;;;;;;;;;;6137631;23;20379;-87
2023/06/17 14:30:09;;;;;;;6.07;5.47;;;;;;;;;;6136874;23;20384;-88
2023/06/17 14:32:36;;;;;;;5.97;5.47;;;;;;;;;;6137039;23;20540;-88
2023/06/17 14:35:02;;;;;;;6.23;5.70;;;;;;;;;;6138228;23;20424;-88
2023/06/17 14:37:29;;;;;;;6.50;5.90;;;;;;;;;;6137953;23;20458;-87
2023/06/17 14:39:55;;;;;;;6.00;5.40;;;;;;;;;;6137394;23;20376;-88
2023/06/17 14:42:21;;;;;;;6.27;5.47;;;;;;;;;;6135451;23;20432;-88